createdAt,value
2019-03-31T00:02:00.744Z,7.30
2019-03-31T00:04:29.317Z,7.30
2019-03-31T00:06:57.939Z,7.20
2019-03-31T00:09:26.891Z,7.20
2019-03-31T00:11:55.462Z,7.20
2019-03-31T00:14:24.061Z,7.10
2019-03-31T00:16:52.739Z,7.10
2019-03-31T00:19:21.496Z,7.10
2019-03-31T00:21:50.080Z,7.10
2019-03-31T00:24:18.651Z,7.10
2019-03-31T00:26:47.219Z,7.10
2019-03-31T00:29:15.815Z,7.10
2019-03-31T00:31:44.386Z,7.00
2019-03-31T00:34:12.957Z,7.10
2019-03-31T00:36:41.621Z,7.10
2019-03-31T00:39:10.771Z,7.10
2019-03-31T00:41:39.339Z,7.00
2019-03-31T00:44:07.934Z,7.00
2019-03-31T00:46:36.576Z,7.00
2019-03-31T00:49:05.145Z,7.00
2019-03-31T00:51:33.755Z,7.00
2019-03-31T00:54:02.325Z,7.00
2019-03-31T00:56:30.902Z,7.00
2019-03-31T00:58:59.497Z,7.00
2019-03-31T01:01:36.417Z,6.90
2019-03-31T01:04:00.420Z,6.90
2019-03-31T01:06:29.384Z,6.90
2019-03-31T01:09:00.001Z,6.90
2019-03-31T01:11:28.641Z,6.90
2019-03-31T01:13:57.502Z,6.80
2019-03-31T01:16:27.105Z,6.80
2019-03-31T01:18:55.672Z,6.70
2019-03-31T01:21:24.269Z,6.70
2019-03-31T01:23:53.137Z,6.70
2019-03-31T01:26:22.439Z,6.60
2019-03-31T01:28:51.776Z,6.60
2019-03-31T01:31:20.412Z,6.50
2019-03-31T01:33:49.160Z,6.60
2019-03-31T01:36:18.099Z,6.60
2019-03-31T01:38:47.953Z,6.50
2019-03-31T01:41:17.055Z,6.50
2019-03-31T01:43:45.654Z,6.40
2019-03-31T01:46:18.213Z,6.40
2019-03-31T01:48:46.843Z,6.40
2019-03-31T01:51:15.442Z,6.50
2019-03-31T01:53:44.029Z,6.50
2019-03-31T01:56:12.637Z,6.50
2019-03-31T01:58:41.515Z,6.50
2019-03-31T02:01:14.292Z,6.40
2019-03-31T02:03:43.022Z,6.30
2019-03-31T02:06:11.619Z,6.30
2019-03-31T02:08:40.357Z,6.20
2019-03-31T02:11:08.995Z,6.20
2019-03-31T02:13:37.736Z,6.20
2019-03-31T02:16:06.374Z,6.20
2019-03-31T02:18:34.942Z,6.20
2019-03-31T02:21:03.699Z,6.20
2019-03-31T02:23:32.265Z,6.10
2019-03-31T02:26:00.836Z,6.10
2019-03-31T02:28:29.499Z,6.00
2019-03-31T02:30:58.064Z,6.00
2019-03-31T02:33:26.785Z,5.90
2019-03-31T02:35:55.340Z,5.80
2019-03-31T02:38:24.015Z,5.80
2019-03-31T02:40:53.226Z,5.80
2019-03-31T02:43:22.862Z,5.80
2019-03-31T02:45:51.429Z,5.80
2019-03-31T02:48:20.009Z,5.90
2019-03-31T02:50:50.531Z,5.90
2019-03-31T02:53:20.544Z,5.90
2019-03-31T02:55:49.573Z,5.90
2019-03-31T02:58:19.097Z,5.90
2019-03-31T03:00:48.003Z,6.00
2019-03-31T03:03:17.517Z,6.00
2019-03-31T03:05:48.053Z,6.10
2019-03-31T03:08:18.524Z,6.10
2019-03-31T03:10:50.959Z,6.10
2019-03-31T03:13:22.392Z,6.20
2019-03-31T03:15:54.036Z,6.20
2019-03-31T03:18:22.602Z,6.20
2019-03-31T03:20:51.268Z,6.30
2019-03-31T03:23:19.836Z,6.30
2019-03-31T03:25:56.246Z,6.30
2019-03-31T03:28:18.645Z,6.30
2019-03-31T03:30:47.361Z,6.30
2019-03-31T03:33:17.990Z,6.30
2019-03-31T03:35:46.470Z,6.40
2019-03-31T03:38:14.994Z,6.50
2019-03-31T03:40:43.562Z,6.50
2019-03-31T03:43:12.172Z,6.50
2019-03-31T03:45:40.734Z,6.50
2019-03-31T03:48:09.305Z,6.50
2019-03-31T03:50:37.909Z,6.50
2019-03-31T03:53:06.482Z,6.60
2019-03-31T03:55:35.053Z,6.60
2019-03-31T03:58:03.648Z,6.60
2019-03-31T04:00:32.236Z,6.70
2019-03-31T04:03:00.819Z,6.70
2019-03-31T04:05:29.421Z,6.70
2019-03-31T04:07:57.982Z,6.60
2019-03-31T04:10:44.927Z,6.60
2019-03-31T04:13:14.242Z,6.60
2019-03-31T04:15:42.882Z,6.60
2019-03-31T04:18:11.492Z,6.60
2019-03-31T04:20:40.065Z,6.60
2019-03-31T04:23:08.635Z,6.70
2019-03-31T04:25:37.232Z,6.70
2019-03-31T04:28:05.806Z,6.70
2019-03-31T04:30:34.364Z,6.70
2019-03-31T04:33:03.045Z,6.70
2019-03-31T04:35:31.761Z,6.70
2019-03-31T04:38:00.315Z,6.70
2019-03-31T04:40:28.915Z,6.80
2019-03-31T04:42:57.478Z,6.80
2019-03-31T04:45:26.046Z,6.80
2019-03-31T04:47:54.651Z,6.90
2019-03-31T04:50:23.216Z,6.90
2019-03-31T04:52:51.788Z,6.90
2019-03-31T04:55:20.385Z,7.00
2019-03-31T04:57:48.949Z,7.00
2019-03-31T05:00:17.517Z,7.10
2019-03-31T05:02:46.453Z,7.20
2019-03-31T05:05:15.038Z,7.20
2019-03-31T05:07:43.605Z,7.20
2019-03-31T05:10:12.648Z,7.30
2019-03-31T05:12:41.216Z,7.40
2019-03-31T05:15:09.851Z,7.40
2019-03-31T05:17:38.462Z,7.40
2019-03-31T05:20:07.603Z,7.40
2019-03-31T05:22:36.172Z,7.40
2019-03-31T05:25:06.133Z,7.50
2019-03-31T05:27:34.741Z,7.50
2019-03-31T05:30:03.516Z,7.60
2019-03-31T05:32:32.128Z,7.70
2019-03-31T05:35:00.708Z,7.70
2019-03-31T05:37:29.276Z,7.70
2019-03-31T05:39:57.879Z,7.80
2019-03-31T05:42:26.443Z,7.90
2019-03-31T05:44:55.010Z,8.00
2019-03-31T05:47:23.603Z,8.10
2019-03-31T05:49:52.172Z,8.10
2019-03-31T05:52:20.827Z,8.20
2019-03-31T05:54:49.441Z,8.30
2019-03-31T05:57:18.018Z,8.50
2019-03-31T05:59:46.590Z,8.50
2019-03-31T06:02:15.191Z,8.50
2019-03-31T06:04:43.750Z,8.60
2019-03-31T06:07:12.316Z,8.60
2019-03-31T06:09:40.926Z,8.70
2019-03-31T06:12:09.524Z,8.80
2019-03-31T06:14:38.063Z,8.80
2019-03-31T06:17:07.330Z,9.10
2019-03-31T06:19:35.898Z,9.20
2019-03-31T06:22:04.461Z,9.30
2019-03-31T06:24:33.035Z,9.50
2019-03-31T06:27:01.504Z,9.70
2019-03-31T06:29:30.054Z,9.90
2019-03-31T06:31:58.564Z,10.30
2019-03-31T06:34:27.115Z,10.60
2019-03-31T06:36:55.637Z,11.00
2019-03-31T06:39:25.097Z,11.50
2019-03-31T06:41:53.659Z,12.30
2019-03-31T06:44:22.197Z,13.50
2019-03-31T06:46:52.023Z,14.40
2019-03-31T06:49:20.505Z,15.40
2019-03-31T06:51:49.049Z,16.20
2019-03-31T06:54:17.580Z,17.20
2019-03-31T06:56:47.279Z,18.50
2019-03-31T06:59:15.890Z,19.00
2019-03-31T07:01:44.452Z,19.90
2019-03-31T07:04:13.574Z,20.90
2019-03-31T07:06:42.134Z,21.50
2019-03-31T07:09:10.713Z,22.00
2019-03-31T07:11:39.273Z,22.20
2019-03-31T07:14:07.820Z,22.10
2019-03-31T07:16:36.468Z,22.40
2019-03-31T07:19:05.010Z,22.70
2019-03-31T07:21:33.497Z,23.10
2019-03-31T07:24:02.988Z,23.10
2019-03-31T07:26:31.461Z,23.70
2019-03-31T07:29:00.072Z,24.30
2019-03-31T07:31:28.590Z,24.90
2019-03-31T07:33:57.145Z,24.90
2019-03-31T07:36:25.691Z,24.10
2019-03-31T07:38:54.285Z,24.30
2019-03-31T07:41:23.171Z,24.40
2019-03-31T07:43:51.911Z,25.10
2019-03-31T07:46:20.478Z,24.90
2019-03-31T07:48:49.038Z,25.70
2019-03-31T07:51:17.582Z,25.80
2019-03-31T07:53:46.096Z,26.80
2019-03-31T07:56:16.079Z,27.30
2019-03-31T07:58:44.935Z,27.70
2019-03-31T08:01:13.484Z,27.10
2019-03-31T08:03:42.045Z,27.10
2019-03-31T08:06:10.595Z,28.00
2019-03-31T08:08:39.543Z,29.30
2019-03-31T08:11:08.028Z,29.90
2019-03-31T08:13:36.599Z,30.00
2019-03-31T08:16:05.337Z,30.80
2019-03-31T08:18:33.895Z,31.50
2019-03-31T08:21:02.442Z,31.10
2019-03-31T08:23:31.030Z,32.20
2019-03-31T08:25:59.586Z,32.30
2019-03-31T08:28:28.135Z,32.00
2019-03-31T08:30:56.722Z,32.40
2019-03-31T08:33:25.270Z,32.60
2019-03-31T08:35:53.749Z,32.40
2019-03-31T08:38:24.474Z,32.90
2019-03-31T08:40:52.470Z,33.50
2019-03-31T08:43:21.018Z,34.00
2019-03-31T08:45:49.575Z,33.50
2019-03-31T08:48:20.705Z,33.50
2019-03-31T08:50:49.496Z,33.50
2019-03-31T08:53:18.080Z,34.00
2019-03-31T08:55:46.564Z,34.50
2019-03-31T08:58:15.101Z,35.30
2019-03-31T09:00:45.264Z,35.90
2019-03-31T09:03:13.808Z,36.10
2019-03-31T09:05:42.287Z,35.20
2019-03-31T09:08:10.868Z,34.90
2019-03-31T09:10:39.416Z,35.60
2019-03-31T09:13:07.896Z,36.00
2019-03-31T09:15:36.580Z,36.40
2019-03-31T09:18:05.565Z,36.50
2019-03-31T09:20:34.124Z,35.80
2019-03-31T09:23:02.715Z,35.50
2019-03-31T09:25:31.272Z,35.20
2019-03-31T09:27:59.822Z,34.90
2019-03-31T09:30:28.434Z,35.60
2019-03-31T09:32:56.971Z,35.60
2019-03-31T09:35:25.516Z,35.30
2019-03-31T09:37:54.108Z,35.60
2019-03-31T09:40:22.659Z,35.60
2019-03-31T09:42:51.220Z,35.10
2019-03-31T09:45:20.370Z,34.90
2019-03-31T09:47:48.841Z,34.90
2019-03-31T09:50:17.759Z,35.00
2019-03-31T09:52:46.359Z,35.20
2019-03-31T09:55:15.258Z,35.70
2019-03-31T09:57:43.801Z,35.60
2019-03-31T10:00:15.706Z,36.00
2019-03-31T10:02:43.478Z,35.60
2019-03-31T10:05:13.070Z,36.20
2019-03-31T10:07:41.676Z,37.20
2019-03-31T10:10:13.307Z,37.60
2019-03-31T10:12:41.848Z,37.30
2019-03-31T10:15:11.475Z,37.40
2019-03-31T10:17:40.021Z,36.90
2019-03-31T10:20:09.207Z,36.80
2019-03-31T10:22:37.799Z,37.00
2019-03-31T10:25:07.395Z,36.50
2019-03-31T10:27:35.957Z,37.30
2019-03-31T10:30:07.288Z,37.80
2019-03-31T10:32:36.254Z,37.00
2019-03-31T10:35:08.212Z,36.80
2019-03-31T10:37:36.972Z,37.40
2019-03-31T10:40:09.273Z,37.50
2019-03-31T10:42:57.385Z,38.00
2019-03-31T10:45:26.096Z,38.50
2019-03-31T10:47:54.790Z,39.00
2019-03-31T10:50:23.756Z,38.60
2019-03-31T10:52:52.647Z,38.50
2019-03-31T10:55:21.440Z,38.40
2019-03-31T10:57:50.221Z,38.00
2019-03-31T11:00:21.905Z,38.30
2019-03-31T11:02:50.858Z,38.20
2019-03-31T11:05:19.596Z,38.00
2019-03-31T11:07:48.273Z,38.20
2019-03-31T11:10:17.737Z,38.20
2019-03-31T11:12:46.448Z,38.20
2019-03-31T11:15:15.189Z,37.70
2019-03-31T11:17:43.912Z,36.30
2019-03-31T11:20:13.115Z,36.10
2019-03-31T11:22:49.565Z,36.20
2019-03-31T11:25:21.344Z,35.70
2019-03-31T11:27:48.604Z,35.80
2019-03-31T11:30:17.932Z,35.20
2019-03-31T11:32:46.514Z,35.10
2019-03-31T11:35:15.122Z,35.10
2019-03-31T11:37:43.856Z,35.00
2019-03-31T11:40:13.219Z,34.80
2019-03-31T11:42:41.784Z,34.90
2019-03-31T11:45:10.886Z,34.60
2019-03-31T11:47:39.479Z,34.20
2019-03-31T11:50:09.171Z,33.50
2019-03-31T11:52:37.725Z,32.70
2019-03-31T11:55:07.560Z,32.30
2019-03-31T11:57:36.480Z,32.40
2019-03-31T12:00:08.982Z,32.40
2019-03-31T12:02:37.586Z,32.00
2019-03-31T12:05:07.849Z,31.50
2019-03-31T12:07:46.607Z,30.20
2019-03-31T12:10:07.951Z,29.90
2019-03-31T12:12:36.450Z,29.60
2019-03-31T12:15:07.765Z,28.80
2019-03-31T12:17:36.355Z,28.10
2019-03-31T12:20:06.662Z,28.00
2019-03-31T12:22:35.256Z,28.30
2019-03-31T12:25:07.719Z,27.80
2019-03-31T12:27:36.269Z,27.30
2019-03-31T12:30:09.139Z,27.00
2019-03-31T12:32:38.921Z,27.20
2019-03-31T12:35:08.598Z,27.30
2019-03-31T12:37:42.691Z,27.10
2019-03-31T12:40:16.740Z,27.00
2019-03-31T12:42:45.293Z,27.00
2019-03-31T12:45:13.844Z,27.10
2019-03-31T12:47:42.438Z,27.10
2019-03-31T12:50:11.128Z,27.30
2019-03-31T12:52:46.473Z,26.60
2019-03-31T12:55:10.020Z,26.30
2019-03-31T12:57:38.530Z,26.00
2019-03-31T13:00:07.826Z,25.60
2019-03-31T13:02:36.483Z,24.70
2019-03-31T13:05:06.427Z,24.60
2019-03-31T13:07:34.970Z,24.90
2019-03-31T13:10:05.168Z,25.40
2019-03-31T13:12:35.073Z,25.80
2019-03-31T13:15:05.801Z,25.90
2019-03-31T13:17:34.835Z,25.70
2019-03-31T13:20:05.144Z,25.60
2019-03-31T13:22:33.797Z,24.90
2019-03-31T13:25:02.983Z,24.60
2019-03-31T13:27:32.572Z,24.10
2019-03-31T13:30:01.113Z,23.60
2019-03-31T13:32:29.680Z,23.30
2019-03-31T13:34:58.238Z,22.90
2019-03-31T13:37:26.800Z,22.50
2019-03-31T13:39:55.403Z,22.30
2019-03-31T13:42:23.953Z,22.10
2019-03-31T13:44:52.506Z,21.90
2019-03-31T13:47:21.093Z,21.80
2019-03-31T13:49:49.640Z,21.90
2019-03-31T13:52:18.186Z,22.30
2019-03-31T13:54:46.698Z,22.50
2019-03-31T13:57:15.789Z,22.50
2019-03-31T13:59:45.274Z,22.40
2019-03-31T14:02:13.864Z,22.10
2019-03-31T14:04:51.519Z,21.80
2019-03-31T14:07:12.750Z,21.70
2019-03-31T14:09:41.354Z,21.60
2019-03-31T14:12:09.978Z,21.70
2019-03-31T14:14:38.545Z,21.80
2019-03-31T14:17:07.120Z,22.10
2019-03-31T14:19:35.673Z,22.20
2019-03-31T14:22:04.386Z,22.20
2019-03-31T14:24:33.084Z,21.80
2019-03-31T14:27:01.616Z,21.50
2019-03-31T14:29:30.160Z,21.30
2019-03-31T14:31:58.822Z,21.20
2019-03-31T14:34:27.458Z,21.00
2019-03-31T14:36:56.092Z,20.80
2019-03-31T14:39:24.749Z,20.70
2019-03-31T14:41:53.340Z,20.50
2019-03-31T14:44:21.913Z,20.30
2019-03-31T14:46:50.502Z,20.10
2019-03-31T14:49:19.082Z,19.90
2019-03-31T14:51:47.638Z,19.80
2019-03-31T14:54:16.308Z,19.70
2019-03-31T14:56:44.925Z,19.60
2019-03-31T14:59:13.484Z,19.50
2019-03-31T15:01:42.060Z,19.50
2019-03-31T15:04:10.614Z,19.40
2019-03-31T15:06:39.634Z,19.30
2019-03-31T15:09:09.034Z,19.20
2019-03-31T15:11:37.577Z,19.10
2019-03-31T15:14:06.125Z,19.00
2019-03-31T15:16:34.787Z,18.90
2019-03-31T15:19:03.305Z,19.10
2019-03-31T15:21:31.840Z,19.40
2019-03-31T15:24:00.345Z,19.70
2019-03-31T15:26:28.905Z,20.10
2019-03-31T15:28:57.443Z,20.30
2019-03-31T15:31:25.958Z,20.30
2019-03-31T15:33:54.504Z,20.10
2019-03-31T15:36:23.049Z,19.90
2019-03-31T15:38:51.656Z,19.70
2019-03-31T15:41:21.271Z,19.40
2019-03-31T15:43:50.213Z,19.10
2019-03-31T15:46:18.777Z,18.90
2019-03-31T15:48:48.871Z,18.60
2019-03-31T15:51:17.431Z,18.50
2019-03-31T15:53:46.007Z,18.30
2019-03-31T15:56:14.639Z,18.30
2019-03-31T15:58:43.160Z,18.20
2019-03-31T16:01:11.763Z,18.00
2019-03-31T16:03:40.388Z,18.00
2019-03-31T16:06:08.948Z,17.90
2019-03-31T16:08:37.518Z,17.70
2019-03-31T16:11:06.060Z,17.70
2019-03-31T16:13:34.621Z,17.60
2019-03-31T16:16:03.279Z,17.50
2019-03-31T16:18:31.835Z,17.30
2019-03-31T16:21:00.377Z,17.20
2019-03-31T16:23:29.508Z,17.10
2019-03-31T16:25:59.119Z,17.10
2019-03-31T16:28:27.678Z,17.00
2019-03-31T16:30:56.333Z,16.90
2019-03-31T16:33:25.067Z,16.90
2019-03-31T16:35:53.752Z,16.80
2019-03-31T16:38:25.479Z,16.70
2019-03-31T16:40:52.519Z,16.50
2019-03-31T16:43:21.000Z,16.30
2019-03-31T16:45:49.588Z,16.20
2019-03-31T16:48:18.160Z,16.00
2019-03-31T16:50:46.697Z,15.90
2019-03-31T16:53:15.370Z,15.80
2019-03-31T16:55:43.915Z,15.70
2019-03-31T16:58:12.392Z,15.50
2019-03-31T17:00:41.058Z,15.40
2019-03-31T17:03:09.540Z,15.30
2019-03-31T17:05:38.092Z,15.10
2019-03-31T17:08:06.671Z,15.00
2019-03-31T17:10:35.229Z,14.90
2019-03-31T17:13:03.801Z,14.80
2019-03-31T17:15:32.442Z,14.80
2019-03-31T17:18:00.928Z,14.70
2019-03-31T17:20:29.478Z,14.60
2019-03-31T17:22:58.056Z,14.60
2019-03-31T17:25:26.607Z,14.50
2019-03-31T17:27:55.159Z,14.40
2019-03-31T17:30:24.078Z,14.30
2019-03-31T17:32:52.619Z,14.30
2019-03-31T17:35:21.307Z,14.20
2019-03-31T17:37:51.591Z,14.10
2019-03-31T17:40:20.200Z,14.10
2019-03-31T17:42:48.747Z,14.00
2019-03-31T17:45:17.506Z,13.90
2019-03-31T17:47:46.424Z,13.90
2019-03-31T17:50:15.527Z,13.90
2019-03-31T17:52:45.605Z,13.80
2019-03-31T17:55:14.309Z,13.70
2019-03-31T17:57:42.984Z,13.60
2019-03-31T18:00:12.448Z,13.60
2019-03-31T18:02:41.015Z,13.50
2019-03-31T18:05:10.197Z,13.40
2019-03-31T18:07:38.747Z,13.30
2019-03-31T18:10:20.029Z,13.30
2019-03-31T18:12:38.312Z,13.30
2019-03-31T18:15:07.355Z,13.20
2019-03-31T18:17:35.892Z,13.20
2019-03-31T18:20:06.216Z,13.10
2019-03-31T18:22:34.811Z,13.00
2019-03-31T18:25:04.130Z,13.00
2019-03-31T18:27:32.679Z,12.90
2019-03-31T18:30:01.280Z,12.80
2019-03-31T18:32:29.819Z,12.70
2019-03-31T18:34:58.378Z,12.70
2019-03-31T18:37:27.088Z,12.60
2019-03-31T18:39:55.634Z,12.60
2019-03-31T18:42:24.184Z,12.60
2019-03-31T18:44:52.769Z,12.50
2019-03-31T18:47:21.375Z,12.40
2019-03-31T18:49:49.932Z,12.30
2019-03-31T18:52:18.539Z,12.20
2019-03-31T18:54:54.735Z,12.20
2019-03-31T18:57:30.632Z,12.20
2019-03-31T19:00:12.609Z,12.00
2019-03-31T19:02:42.798Z,12.00
2019-03-31T19:05:13.114Z,11.90
2019-03-31T19:07:43.290Z,11.80
2019-03-31T19:10:29.902Z,11.70
2019-03-31T19:13:03.186Z,11.60
2019-03-31T19:15:36.265Z,11.50
2019-03-31T19:18:09.498Z,11.50
2019-03-31T19:20:42.870Z,11.50
2019-03-31T19:23:15.645Z,11.40
2019-03-31T19:25:51.910Z,11.30
2019-03-31T19:28:34.342Z,11.20
2019-03-31T19:31:10.851Z,11.20
2019-03-31T19:33:56.103Z,11.10
2019-03-31T19:36:41.244Z,11.10
2019-03-31T19:39:17.599Z,11.00
2019-03-31T19:41:47.840Z,10.90
2019-03-31T19:44:34.166Z,10.90
2019-03-31T19:47:20.492Z,10.90
2019-03-31T19:49:53.641Z,10.80
2019-03-31T19:52:32.764Z,10.80
2019-03-31T19:55:08.560Z,10.70
2019-03-31T19:57:38.789Z,10.60
2019-03-31T20:00:21.342Z,10.60
2019-03-31T20:02:51.570Z,10.60
2019-03-31T20:05:27.427Z,10.50
2019-03-31T20:07:57.647Z,10.50
2019-03-31T20:10:27.834Z,10.40
2019-03-31T20:13:14.168Z,10.40
2019-03-31T20:15:44.366Z,10.40
2019-03-31T20:18:16.998Z,10.40
2019-03-31T20:20:52.815Z,10.40
2019-03-31T20:23:23.008Z,10.30
2019-03-31T20:26:09.340Z,10.20
2019-03-31T20:28:39.597Z,10.20
2019-03-31T20:31:22.088Z,10.10
2019-03-31T20:33:55.169Z,10.10
2019-03-31T20:36:25.359Z,10.10
2019-03-31T20:38:55.731Z,10.00
2019-03-31T20:41:41.078Z,10.00
2019-03-31T20:44:09.587Z,10.00
2019-03-31T20:46:38.126Z,9.90
2019-03-31T20:49:06.661Z,9.90
2019-03-31T20:51:35.232Z,9.90
2019-03-31T20:54:03.850Z,9.90
2019-03-31T20:56:32.330Z,9.80
2019-03-31T20:59:00.918Z,9.80
2019-03-31T21:01:30.089Z,9.80
2019-03-31T21:03:58.640Z,9.70
2019-03-31T21:06:27.211Z,9.70
2019-03-31T21:08:55.756Z,9.60
2019-03-31T21:11:24.313Z,9.60
2019-03-31T21:13:52.884Z,9.50
2019-03-31T21:16:21.441Z,9.40
2019-03-31T21:18:49.978Z,9.40
2019-03-31T21:21:18.548Z,9.30
2019-03-31T21:23:47.014Z,9.30
2019-03-31T21:26:15.640Z,9.20
2019-03-31T21:28:44.296Z,9.20
2019-03-31T21:31:12.843Z,9.20
2019-03-31T21:33:41.384Z,9.10
2019-03-31T21:36:09.968Z,9.10
2019-03-31T21:38:38.579Z,9.00
2019-03-31T21:41:07.172Z,9.10
2019-03-31T21:43:36.633Z,9.00
2019-03-31T21:46:05.172Z,9.00
2019-03-31T21:48:35.181Z,8.90
2019-03-31T21:51:03.964Z,8.90
2019-03-31T21:53:32.463Z,8.80
2019-03-31T21:56:01.006Z,8.80
2019-03-31T21:58:29.580Z,8.80
2019-03-31T22:00:59.137Z,8.70
2019-03-31T22:03:27.816Z,8.70
2019-03-31T22:05:56.501Z,8.60
2019-03-31T22:08:25.001Z,8.60
2019-03-31T22:10:53.559Z,8.50
2019-03-31T22:13:22.113Z,8.40
2019-03-31T22:15:50.727Z,8.30
2019-03-31T22:18:21.026Z,8.20
2019-03-31T22:20:52.345Z,8.10
2019-03-31T22:23:20.890Z,8.00
2019-03-31T22:25:49.509Z,8.00
2019-03-31T22:28:18.197Z,7.90
2019-03-31T22:30:46.729Z,7.80
2019-03-31T22:33:15.265Z,7.80
2019-03-31T22:35:45.474Z,7.80
2019-03-31T22:38:14.017Z,7.70
2019-03-31T22:40:42.572Z,7.60
2019-03-31T22:43:11.767Z,7.50
2019-03-31T22:45:40.306Z,7.40
2019-03-31T22:48:08.915Z,7.30
2019-03-31T22:50:39.423Z,7.30
2019-03-31T22:53:07.631Z,7.20
2019-03-31T22:55:36.412Z,7.10
2019-03-31T22:58:04.951Z,7.00
2019-03-31T23:00:33.496Z,6.90
2019-03-31T23:03:02.042Z,6.70
2019-03-31T23:05:30.646Z,6.70
2019-03-31T23:07:59.184Z,6.60
2019-03-31T23:10:27.730Z,6.50
2019-03-31T23:12:56.298Z,6.50
2019-03-31T23:15:24.845Z,6.50
2019-03-31T23:17:53.403Z,6.50
2019-03-31T23:20:21.968Z,6.40
2019-03-31T23:22:50.520Z,6.40
2019-03-31T23:25:19.073Z,6.40
2019-03-31T23:27:47.648Z,6.40
2019-03-31T23:30:16.279Z,6.40
2019-03-31T23:32:44.752Z,6.40
2019-03-31T23:35:13.974Z,6.30
2019-03-31T23:37:42.448Z,6.30
2019-03-31T23:40:11.062Z,6.20
2019-03-31T23:42:39.646Z,6.10
2019-03-31T23:45:09.749Z,6.10
2019-03-31T23:47:38.300Z,6.10
2019-03-31T23:50:07.128Z,6.10
2019-03-31T23:52:35.616Z,6.20
2019-03-31T23:55:04.888Z,6.10
2019-03-31T23:57:39.888Z,6.10
